Virginia Peak (RGX), Nevada Weather observations

 Day   Time    Ave.   Ave.  Ave.  Vector  Max.   Total    Solar  
  of    of     Air    Rel.  Wind   Wind   Wind  Precip.   Rad.   
Year   Day     Temp.  Hum.  Speed  Dir.   Gust                   
2014   (PST)    F      %     mph   deg.    mph    in.     W/m2  
----------------------------------------------------------------
 351   13:15   26.0   999    0.8   249    18.6   999.00     999
 351   13:30   26.0    85   16.2   254    18.6   999.00     999
 351   13:45   26.0   999   17.4   258    20.4   999.00     999
 351   14:00   26.0    85   16.2   268    24.0   999.00     999
 351   14:15  999.0   999  999.0   999   999.0   999.00     999
 351   14:30  999.0   999  999.0   999   999.0   999.00     999
 351   14:45  999.0   999  999.0   999   999.0   999.00     999
 351   15:00  999.0   999  999.0   999   999.0   999.00     999
 351   15:15   25.0    95   15.6   263    23.4   999.00     999
 351   15:30   25.0    94   18.0   263    18.6   999.00     999
 351   15:45   25.0    95   16.2   269    19.8   999.00     999
 351   16:00   24.0    94   19.2   262    21.6   999.00     999
 351   16:15   24.0   999  999.0   262    22.2   999.00     999
 351   16:30   24.0    97   16.2   261    19.8   999.00     999
 351   16:45   24.0    95   15.6   262    19.2   999.00     999
 351   17:00   24.0    96   16.8   999    12.8   999.00     999
 351   17:15   24.0    95   12.6   249    19.2   999.00     999
 351   17:30   24.0    95   13.2   256    15.6   999.00     999
 351   17:45   24.0    95  999.0   999    15.6   999.00     999
 351   18:00   24.0    96   12.0   259    14.4   999.00     999
 351   18:15   24.0    96   10.2   255    13.2   999.00     999
 351   18:30  999.0    96   10.8   243    12.6   999.00     999
 351   18:45   24.0    96   10.8   264    12.6   999.00     999
 351   19:00   23.0    97    9.0   253    11.4   999.00     999
 351   19:15  999.0   999  999.0   999   999.0   999.00     999
 351   19:30   23.0   999   14.4   248    16.2   999.00     999
 351   19:45   23.0    97   13.8   241    14.4   999.00     999
 351   20:00   23.0    96   16.2   239    16.2   999.00     999
 351   20:15   23.0    95   18.6   233    19.2   999.00     999
 351   20:30   23.0    95   14.4   243    19.2   999.00     999
 351   20:45   15.0   999  102.6   244    16.2   999.00     999
 351   21:00   -9.0    95   15.6   226    16.8   999.00     999
 351   21:15   15.0    96   15.0   222    18.6   999.00     999
 351   21:30   23.0    96   16.8   228    18.6   999.00     999
 351   21:45   23.0    97   13.8   237    17.4   999.00     999
 351   22:00   23.0    97   15.6   237    16.8   999.00     999
 351   22:15  999.0   999  999.0   225    21.0   999.00     999
 351   22:30  999.0   999  999.0   999   999.0   999.00     999
 351   22:45  999.0   999  999.0   232    21.0   999.00     999
 351   23:00  111.0   999  999.0   999    21.0   999.00     999
 351   23:15   23.0    95   16.8   235    19.2   999.00     999
 351   23:30   22.0    94   15.6   231    17.4   999.00     999
 351   23:45  150.0    95   17.4   226    19.2   999.00     999
 352    0:00   22.0    95   20.4   235    21.6   999.00     999
 352    0:15   22.0    95   19.2   239    21.6   999.00     999
 352    0:30   22.0   999   18.6   243    21.6   999.00     999
 352    0:45   22.0    95   15.0   249    18.6   999.00     999
 352    1:00   22.0   999   10.8   249    16.8   999.00     999
 352    1:15   22.0    93   12.6   252    13.8   999.00     999
 352    1:30   21.0    94   16.2   255    16.2   999.00     999
 352    1:45   22.0    95   15.6   264   999.0   999.00     999
 352    2:00   22.0    96   15.0   999    16.8   999.00     999
 352    2:15   22.0    96   10.8   273    15.6   999.00     999
 352    2:30   22.0    93    9.6   268    11.4   999.00     999
 352    2:45  999.0    94   10.8   268    13.8   999.00     999
 352    3:00   22.0    94    8.9   267    13.8   999.00     999
 352    3:15   22.0    94   10.2   268    10.2   999.00     999
 352    3:30   22.0    94   12.0   271    12.6   999.00     999
 352    3:45   22.0    94   12.6   270    14.4   999.00     999
 352    4:00   22.0    95   11.4   282    14.4   999.00     999
 352    4:15   23.0    95   12.0   268    16.2   999.00     999
 352    4:30  999.0    96   12.6   261    13.8   999.00     999
 352    4:45   23.0    95   16.2   262    16.8   999.00     999
 352    5:00   -9.0    95   15.6   267    19.8   999.00     999
 352    5:15  999.0   999   17.4   257    18.6   999.00     999
 352    5:30   23.0    95   16.8   274    18.6   999.00     999
 352    5:45   23.0    95   19.8   259    20.4   999.00     999
 352    6:00   23.0    95   21.0   262    22.8   999.00     999
 352    6:15  999.0   999  999.0   999   999.0   999.00     999
 352    6:30  999.0   999  999.0   999   999.0   999.00     999
 352    6:45  999.0    95   11.4   262    14.4   999.00     999
 352    7:00   23.0    95   11.4   265    12.0   999.00     999
 352    7:15   23.0    95  999.0   265    11.4   999.00     999
 352    7:30   23.0    95   10.2   263    11.4   999.00     999
 352    7:45   23.0    95   10.8   259    11.4   999.00     999
 352    8:00  999.0   999  999.0   999   999.0   999.00     999
 352    8:15  999.0   999  999.0   999   999.0   999.00     999
 352    8:30  999.0   999  999.0   999   999.0   999.00     999
 352    8:45  999.0   999  999.0   999   999.0   999.00     999
 352    9:00  999.0   999  999.0   999   999.0   999.00     999
 352    9:15   26.0    92  107.2   193     6.6   999.00     999
 352    9:30   27.0    93    4.2   200     6.0   999.00     999
 352    9:45   27.0    91    9.0   250     9.6   999.00     999
 352   10:00  999.0    93   10.2   265    11.4   999.00     999
 352   10:15   26.0    90   10.2   245    12.0   999.00     999
 352   10:30   27.0    90   13.8   241    13.8   999.00     999
 352   10:45   27.0    91    9.6   229    13.2   999.00     999
 352   11:00   28.0    89  114.4   243    14.4   999.00     999
 352   11:15   28.0    86   15.6   254    18.6   999.00     999
 352   11:30   28.0    87   12.0   252    19.2   999.00     999
 352   11:45   27.0    86   12.0   242    15.0   999.00     999
 352   12:00   28.0    82    8.4   209    12.6   999.00     999
 352   12:15  999.0   999   15.6   246    16.8   999.00     999
 352   12:30  999.0    73   13.8   999    18.0   999.00     999
 352   12:45   29.0    77   15.0   238    19.8   999.00     999
 352   13:00   28.0    81   15.6   250    18.0   999.00     999

Return to Virginia Peak (RGX) graphs page.


Western Regional Climate Center,wrcc@dri.edu